createdAt,value
2022-10-03T00:01:22.121Z,72.05
2022-10-03T00:03:37.102Z,69.18
2022-10-03T00:05:57.472Z,43.67
2022-10-03T00:08:28.987Z,26.98
2022-10-03T00:10:38.910Z,26.77
2022-10-03T00:12:47.475Z,27.83
2022-10-03T00:15:09.884Z,34.97
2022-10-03T00:17:28.274Z,27.52
2022-10-03T00:19:59.629Z,22.45
2022-10-03T00:22:21.506Z,16.88
2022-10-03T00:24:47.573Z,9.02
2022-10-03T00:26:56.505Z,17.08
2022-10-03T00:29:20.651Z,36.92
2022-10-03T00:31:43.086Z,37.42
2022-10-03T00:34:09.768Z,54.88
2022-10-03T00:36:42.863Z,41.30
2022-10-03T00:39:21.104Z,40.63
2022-10-03T00:41:55.697Z,37.83
2022-10-03T00:44:16.784Z,32.03
2022-10-03T00:46:37.479Z,33.30
2022-10-03T00:49:06.821Z,27.85
2022-10-03T00:51:27.117Z,23.33
2022-10-03T00:53:47.129Z,21.55
2022-10-03T00:56:03.648Z,24.90
2022-10-03T00:58:32.019Z,20.58
2022-10-03T01:00:35.559Z,12.30
2022-10-03T01:03:09.593Z,9.77
2022-10-03T01:05:48.401Z,13.07
2022-10-03T01:07:58.211Z,7.03
2022-10-03T01:10:37.063Z,8.20
2022-10-03T01:13:22.188Z,10.05
2022-10-03T01:15:43.578Z,6.88
2022-10-03T01:17:54.056Z,6.50
2022-10-03T01:20:18.416Z,7.95
2022-10-03T01:22:48.915Z,7.90
2022-10-03T01:24:53.779Z,11.57
2022-10-03T01:27:00.896Z,10.90
2022-10-03T01:29:29.294Z,11.70
2022-10-03T01:31:39.118Z,10.68
2022-10-03T01:33:49.146Z,9.05
2022-10-03T01:36:03.292Z,8.50
2022-10-03T01:38:28.164Z,8.15
2022-10-03T01:41:15.185Z,7.30
2022-10-03T01:43:33.040Z,8.40
2022-10-03T01:45:49.759Z,23.58
2022-10-03T01:48:01.311Z,30.50
2022-10-03T01:50:08.925Z,30.73
2022-10-03T01:52:37.246Z,28.67
2022-10-03T01:55:08.300Z,34.58
2022-10-03T01:57:41.996Z,31.50
2022-10-03T02:00:02.284Z,34.72
2022-10-03T02:02:42.761Z,26.33
2022-10-03T02:04:52.847Z,11.55
2022-10-03T02:07:03.175Z,13.90
2022-10-03T02:09:16.880Z,10.10
2022-10-03T02:11:58.148Z,8.85
2022-10-03T02:14:18.068Z,9.88
2022-10-03T02:16:44.975Z,27.17
2022-10-03T02:18:49.963Z,33.05
2022-10-03T02:21:03.088Z,20.10
2022-10-03T02:23:24.051Z,17.40
2022-10-03T02:25:31.924Z,12.98
2022-10-03T02:28:15.261Z,15.48
2022-10-03T02:30:20.081Z,16.23
2022-10-03T02:32:52.154Z,16.50
2022-10-03T02:35:08.040Z,15.07
2022-10-03T02:37:47.271Z,11.05
2022-10-03T02:40:08.715Z,8.38
2022-10-03T02:42:55.300Z,8.18
2022-10-03T02:45:21.335Z,5.30
2022-10-03T02:47:51.262Z,5.88
2022-10-03T02:50:13.795Z,5.32
2022-10-03T02:52:45.871Z,6.07
2022-10-03T02:55:06.112Z,13.55
2022-10-03T02:57:39.742Z,24.88
2022-10-03T03:00:05.945Z,27.35
2022-10-03T03:02:48.120Z,24.80
2022-10-03T03:05:18.661Z,28.23
2022-10-03T03:07:39.354Z,33.92
2022-10-03T03:10:05.323Z,30.15
2022-10-03T03:12:25.419Z,25.65
2022-10-03T03:14:40.102Z,37.08
2022-10-03T03:16:57.949Z,35.90
2022-10-03T03:19:11.268Z,36.92
2022-10-03T03:22:01.862Z,28.15
2022-10-03T03:24:14.446Z,34.67
2022-10-03T03:26:16.481Z,34.13
2022-10-03T03:28:24.640Z,35.67
2022-10-03T03:30:39.103Z,37.53
2022-10-03T03:33:12.887Z,34.92
2022-10-03T03:35:27.179Z,56.45
2022-10-03T03:37:44.151Z,62.40
2022-10-03T03:39:57.335Z,93.43
2022-10-03T03:42:41.062Z,74.45
2022-10-03T03:44:58.615Z,59.17
2022-10-03T03:47:16.749Z,52.60
2022-10-03T03:49:49.731Z,33.63
2022-10-03T03:52:02.293Z,39.25
2022-10-03T03:54:26.437Z,43.42
2022-10-03T03:56:49.401Z,33.10
2022-10-03T03:59:19.266Z,42.33
2022-10-03T04:01:52.266Z,28.10
2022-10-03T04:04:23.394Z,28.73
2022-10-03T04:06:40.567Z,22.25
2022-10-03T04:09:01.055Z,16.65
2022-10-03T04:11:18.581Z,12.85
2022-10-03T04:13:48.364Z,14.30
2022-10-03T04:15:56.569Z,16.63
2022-10-03T04:18:20.178Z,42.55
2022-10-03T04:20:26.855Z,57.22
2022-10-03T04:23:01.726Z,92.07
2022-10-03T04:25:41.275Z,97.57
2022-10-03T04:28:14.399Z,73.60
2022-10-03T04:30:20.930Z,52.10
2022-10-03T04:32:49.152Z,38.70
2022-10-03T04:34:51.221Z,23.00
2022-10-03T04:37:24.518Z,12.93
2022-10-03T04:40:13.695Z,6.80
2022-10-03T04:42:39.833Z,4.10
2022-10-03T04:45:00.788Z,3.13
2022-10-03T04:47:15.671Z,4.40
2022-10-03T04:49:37.511Z,3.50
2022-10-03T04:52:26.241Z,3.72
2022-10-03T04:54:53.281Z,3.78
2022-10-03T04:57:32.992Z,5.20
2022-10-03T04:59:38.142Z,3.08
2022-10-03T05:01:47.810Z,3.63
2022-10-03T05:04:10.838Z,3.90
2022-10-03T05:06:19.544Z,2.25
2022-10-03T05:08:30.471Z,4.38
2022-10-03T05:10:53.251Z,2.97
2022-10-03T05:13:27.428Z,5.95
2022-10-03T05:16:06.773Z,1.65
2022-10-03T05:18:11.608Z,3.30
2022-10-03T05:20:45.041Z,6.78
2022-10-03T05:23:17.675Z,2.72
2022-10-03T05:25:43.682Z,2.70
2022-10-03T05:27:52.240Z,4.10
2022-10-03T05:30:09.837Z,5.47
2022-10-03T05:32:21.006Z,5.18
2022-10-03T05:34:33.490Z,4.82
2022-10-03T05:36:53.107Z,4.85
2022-10-03T05:39:16.844Z,8.27
2022-10-03T05:41:35.848Z,15.00
2022-10-03T05:44:01.872Z,119.25
2022-10-03T05:46:21.633Z,159.88
2022-10-03T05:48:39.055Z,122.40
2022-10-03T05:51:14.987Z,55.42
2022-10-03T05:53:17.066Z,109.50
2022-10-03T05:55:48.229Z,97.18
2022-10-03T05:57:59.419Z,49.53
2022-10-03T06:00:01.380Z,60.30
2022-10-03T06:02:38.318Z,88.15
2022-10-03T06:05:17.038Z,105.05
2022-10-03T06:08:00.273Z,110.47
2022-10-03T06:10:08.323Z,62.80
2022-10-03T06:12:33.457Z,34.28
2022-10-03T06:15:10.795Z,31.90
2022-10-03T06:17:33.932Z,28.58
2022-10-03T06:19:44.816Z,32.13
2022-10-03T06:22:05.020Z,26.95
2022-10-03T06:24:35.043Z,29.67
2022-10-03T06:26:40.184Z,48.40
2022-10-03T06:29:19.681Z,52.50
2022-10-03T06:31:44.277Z,57.30
2022-10-03T06:34:01.588Z,40.50
2022-10-03T06:36:26.491Z,55.42
2022-10-03T06:38:40.686Z,75.35
2022-10-03T06:40:53.532Z,75.13
2022-10-03T06:42:58.494Z,54.72
2022-10-03T06:45:38.085Z,40.20
2022-10-03T06:47:52.758Z,46.55
2022-10-03T06:50:36.192Z,54.05
2022-10-03T06:53:02.533Z,46.65
2022-10-03T06:55:35.692Z,63.22
2022-10-03T06:57:51.520Z,53.42
2022-10-03T07:00:10.494Z,60.83
2022-10-03T07:02:39.163Z,59.67
2022-10-03T07:08:35.952Z,32.45
2022-10-03T07:10:48.349Z,29.88
2022-10-03T07:12:59.307Z,17.75
2022-10-03T07:16:02.094Z,11.80
2022-10-03T07:18:27.534Z,7.13
2022-10-03T07:21:06.742Z,6.35
2022-10-03T07:23:43.241Z,7.55
2022-10-03T07:26:12.921Z,15.02
2022-10-03T07:28:39.247Z,10.40
2022-10-03T07:31:03.246Z,10.07
2022-10-03T07:33:42.056Z,12.85
2022-10-03T07:36:30.613Z,9.38
2022-10-03T07:39:07.325Z,15.75
2022-10-03T07:41:43.732Z,17.25
2022-10-03T07:44:04.260Z,16.95
2022-10-03T07:46:28.905Z,23.63
2022-10-03T07:48:50.176Z,25.75
2022-10-03T07:51:13.882Z,27.45
2022-10-03T07:53:18.733Z,19.30
2022-10-03T07:55:39.427Z,16.90
2022-10-03T07:58:09.486Z,16.63
2022-10-03T08:00:17.990Z,17.75
2022-10-03T08:02:41.926Z,14.88
2022-10-03T08:05:16.074Z,15.45
2022-10-03T08:07:36.547Z,11.13
2022-10-03T08:10:02.516Z,13.85
2022-10-03T08:12:16.820Z,12.32
2022-10-03T08:14:37.754Z,10.73
2022-10-03T08:16:58.752Z,137.05
2022-10-03T08:19:23.238Z,244.38
2022-10-03T08:21:39.067Z,179.68
2022-10-03T08:24:04.769Z,187.02
2022-10-03T08:26:23.383Z,227.43
2022-10-03T08:29:09.004Z,289.52
2022-10-03T08:31:35.332Z,230.95
2022-10-03T08:34:10.922Z,130.55
2022-10-03T08:36:45.780Z,91.55
2022-10-03T08:38:59.856Z,120.25
2022-10-03T08:41:36.899Z,132.45
2022-10-03T08:44:07.354Z,113.45
2022-10-03T08:46:11.945Z,69.45
2022-10-03T08:48:34.771Z,48.92
2022-10-03T08:50:46.604Z,39.25
2022-10-03T08:53:20.676Z,36.20
2022-10-03T08:55:45.851Z,13.18
2022-10-03T08:57:59.044Z,9.18
2022-10-03T09:00:19.032Z,13.23
2022-10-03T09:02:33.179Z,26.23
2022-10-03T09:05:03.407Z,24.77
2022-10-03T09:07:19.741Z,19.95
2022-10-03T09:09:43.454Z,15.10
2022-10-03T09:12:25.400Z,35.28
2022-10-03T09:14:50.697Z,36.50
2022-10-03T09:16:55.322Z,37.83
2022-10-03T09:19:14.816Z,34.10
2022-10-03T09:21:38.287Z,31.80
2022-10-03T09:23:58.079Z,24.10
2022-10-03T09:26:26.319Z,33.20
2022-10-03T09:29:13.123Z,29.42
2022-10-03T09:31:31.206Z,26.67
2022-10-03T09:34:04.019Z,23.55
2022-10-03T09:36:43.300Z,27.70
2022-10-03T09:39:16.604Z,26.35
2022-10-03T09:41:42.178Z,16.95
2022-10-03T09:44:03.203Z,10.75
2022-10-03T09:46:46.689Z,7.60
2022-10-03T09:49:26.504Z,8.52
2022-10-03T09:51:40.212Z,7.35
2022-10-03T09:54:24.136Z,7.30
2022-10-03T09:56:26.312Z,5.32
2022-10-03T09:58:42.049Z,5.05
2022-10-03T10:01:15.845Z,14.63
2022-10-03T10:03:42.387Z,15.82
2022-10-03T10:06:00.521Z,15.75
2022-10-03T10:08:33.442Z,12.07
2022-10-03T10:11:03.454Z,6.50
2022-10-03T10:14:05.812Z,4.32
2022-10-03T10:16:49.663Z,3.78
2022-10-03T10:19:03.593Z,1.90
2022-10-03T10:21:23.877Z,3.47
2022-10-03T10:23:47.772Z,6.43
2022-10-03T10:26:30.012Z,2.10
2022-10-03T10:28:59.816Z,2.72
2022-10-03T10:31:07.655Z,3.65
2022-10-03T10:33:45.720Z,3.35
2022-10-03T10:36:19.457Z,2.75
2022-10-03T10:38:39.853Z,3.25
2022-10-03T10:40:47.678Z,2.67
2022-10-03T10:43:23.774Z,3.75
2022-10-03T10:45:54.310Z,1.85
2022-10-03T10:48:46.851Z,3.28
2022-10-03T10:51:06.619Z,2.80
2022-10-03T10:53:42.696Z,2.20
2022-10-03T10:56:23.036Z,2.60
2022-10-03T10:58:43.065Z,3.80
2022-10-03T11:00:50.720Z,2.45
2022-10-03T11:03:15.678Z,3.20
2022-10-03T11:05:36.501Z,1.88
2022-10-03T11:08:19.374Z,2.72
2022-10-03T11:10:33.182Z,2.08
2022-10-03T11:12:41.199Z,1.48
2022-10-03T11:15:11.145Z,2.38
2022-10-03T11:17:48.133Z,2.47
2022-10-03T11:20:11.792Z,3.90
2022-10-03T11:22:32.363Z,3.85
2022-10-03T11:24:59.587Z,1.85
2022-10-03T11:27:43.446Z,5.80
2022-10-03T11:30:23.302Z,3.85
2022-10-03T11:33:13.411Z,3.60
2022-10-03T11:35:45.350Z,3.00
2022-10-03T11:37:58.724Z,2.60
2022-10-03T11:40:22.069Z,6.07
2022-10-03T11:42:33.556Z,3.67
2022-10-03T11:44:45.265Z,1.63
2022-10-03T11:47:13.978Z,4.25
2022-10-03T11:49:36.205Z,2.63
2022-10-03T11:51:52.842Z,2.42
2022-10-03T11:54:30.955Z,2.30
2022-10-03T11:56:47.477Z,2.70
2022-10-03T11:58:55.382Z,1.30
2022-10-03T12:01:04.645Z,2.40
2022-10-03T12:03:16.177Z,2.50
2022-10-03T12:06:19.490Z,2.45
2022-10-03T12:08:53.574Z,2.05
2022-10-03T12:11:18.649Z,5.28
2022-10-03T12:13:35.066Z,2.17
2022-10-03T12:15:48.324Z,3.47
2022-10-03T12:18:07.081Z,2.25
2022-10-03T12:20:33.558Z,4.60
2022-10-03T12:22:54.186Z,3.20
2022-10-03T12:25:23.454Z,1.95
2022-10-03T12:27:47.637Z,3.28
2022-10-03T12:29:58.994Z,3.95
2022-10-03T12:32:20.102Z,3.47
2022-10-03T12:34:43.235Z,9.57
2022-10-03T12:37:03.901Z,3.78
2022-10-03T12:39:25.882Z,3.90
2022-10-03T12:41:56.702Z,3.97
2022-10-03T12:44:36.543Z,4.38
2022-10-03T12:46:48.196Z,4.88
2022-10-03T12:49:20.572Z,9.35
2022-10-03T12:51:44.989Z,3.97
2022-10-03T12:53:52.618Z,4.45
2022-10-03T12:56:11.916Z,5.18
2022-10-03T12:58:35.066Z,6.47
2022-10-03T13:00:49.659Z,5.53
2022-10-03T13:03:15.336Z,3.00
2022-10-03T13:05:37.806Z,6.22
2022-10-03T13:07:53.026Z,4.72
2022-10-03T13:10:17.077Z,5.72
2022-10-03T13:12:28.453Z,11.15
2022-10-03T13:14:41.615Z,6.43
2022-10-03T13:17:09.381Z,6.00
2022-10-03T13:19:30.125Z,6.22
2022-10-03T13:21:48.369Z,5.00
2022-10-03T13:23:58.775Z,10.30
2022-10-03T13:26:20.056Z,6.20
2022-10-03T13:28:28.157Z,6.00
2022-10-03T13:30:34.725Z,7.82
2022-10-03T13:32:43.310Z,28.40
2022-10-03T13:35:42.024Z,45.15
2022-10-03T13:37:59.919Z,42.70
2022-10-03T13:40:12.617Z,55.55
2022-10-03T13:42:14.472Z,70.10
2022-10-03T13:44:33.718Z,84.88
2022-10-03T13:46:57.294Z,94.03
2022-10-03T13:49:11.045Z,108.75
2022-10-03T13:51:37.197Z,80.10
2022-10-03T13:53:45.765Z,53.28
2022-10-03T13:56:01.749Z,46.40
2022-10-03T13:58:41.718Z,38.53
2022-10-03T14:00:52.647Z,41.00
2022-10-03T14:03:27.173Z,33.20
2022-10-03T14:05:32.035Z,20.73
2022-10-03T14:07:42.495Z,25.10
2022-10-03T14:10:30.123Z,33.47
2022-10-03T14:12:55.738Z,22.23
2022-10-03T14:15:17.149Z,17.63
2022-10-03T14:17:57.108Z,13.32
2022-10-03T14:20:07.775Z,19.98
2022-10-03T14:22:27.936Z,15.40
2022-10-03T14:24:38.579Z,13.05
2022-10-03T14:27:18.064Z,20.25
2022-10-03T14:29:41.521Z,21.77
2022-10-03T14:31:46.173Z,25.17
2022-10-03T14:33:48.429Z,21.15
2022-10-03T14:36:16.888Z,14.98
2022-10-03T14:39:02.316Z,21.98
2022-10-03T14:41:11.366Z,21.60
2022-10-03T14:43:42.774Z,23.70
2022-10-03T14:45:52.794Z,21.38
2022-10-03T14:48:01.306Z,30.77
2022-10-03T14:50:05.665Z,30.15
2022-10-03T14:52:19.003Z,25.42
2022-10-03T14:54:29.503Z,26.08
2022-10-03T14:57:00.244Z,38.60
2022-10-03T14:59:13.696Z,54.10
2022-10-03T15:01:20.828Z,76.25
2022-10-03T15:03:30.672Z,69.90
2022-10-03T15:05:36.094Z,80.32
2022-10-03T15:07:40.551Z,122.40
2022-10-03T15:09:50.269Z,113.30
2022-10-03T15:12:03.227Z,115.90
2022-10-03T15:14:10.261Z,118.50
2022-10-03T15:16:20.303Z,108.05
2022-10-03T15:18:24.869Z,94.30
2022-10-03T15:20:31.233Z,78.68
2022-10-03T15:22:49.460Z,72.70
2022-10-03T15:25:00.768Z,61.00
2022-10-03T15:27:13.488Z,48.47
2022-10-03T15:29:18.479Z,44.88
2022-10-03T15:31:42.184Z,36.88
2022-10-03T15:33:45.914Z,39.05
2022-10-03T15:35:55.179Z,38.33
2022-10-03T15:38:12.029Z,35.13
2022-10-03T15:40:34.022Z,35.42
2022-10-03T15:42:49.583Z,31.80
2022-10-03T15:45:07.452Z,29.85
2022-10-03T15:47:12.964Z,29.88
2022-10-03T15:49:21.081Z,52.80
2022-10-03T15:51:27.732Z,44.03
2022-10-03T15:53:37.190Z,55.08
2022-10-03T15:55:48.306Z,43.75
2022-10-03T15:57:53.973Z,34.10
2022-10-03T16:00:03.019Z,19.50
2022-10-03T16:02:21.267Z,18.05
2022-10-03T16:04:33.946Z,18.98
2022-10-03T16:06:53.643Z,16.33
2022-10-03T16:09:33.667Z,15.07
2022-10-03T16:12:04.152Z,17.45
2022-10-03T16:14:22.803Z,19.27
2022-10-03T16:16:42.815Z,13.98
2022-10-03T16:18:48.487Z,9.32
2022-10-03T16:20:57.895Z,8.55
2022-10-03T16:23:10.581Z,6.25
2022-10-03T16:25:18.416Z,1.48
2022-10-03T16:27:30.001Z,0.93
2022-10-03T16:29:37.524Z,3.80
2022-10-03T16:31:48.846Z,3.13
2022-10-03T16:34:12.447Z,2.30
2022-10-03T16:36:19.620Z,2.30
2022-10-03T16:38:44.183Z,1.83
2022-10-03T16:41:02.021Z,2.13
2022-10-03T16:43:12.603Z,3.83
2022-10-03T16:45:35.605Z,1.35
2022-10-03T16:47:38.707Z,2.67
2022-10-03T16:50:06.262Z,2.42
2022-10-03T16:52:34.790Z,2.95
2022-10-03T16:54:37.638Z,6.00
2022-10-03T16:56:44.772Z,4.90
2022-10-03T16:58:53.070Z,5.55
2022-10-03T17:01:26.003Z,6.93
2022-10-03T17:03:32.344Z,6.32
2022-10-03T17:05:46.215Z,11.48
2022-10-03T17:08:06.675Z,17.73
2022-10-03T17:10:31.959Z,16.25
2022-10-03T17:12:46.204Z,13.60
2022-10-03T17:14:49.141Z,13.80
2022-10-03T17:16:56.560Z,14.32
2022-10-03T17:19:14.646Z,14.85
2022-10-03T17:21:33.180Z,22.23
2022-10-03T17:23:56.486Z,25.92
2022-10-03T17:26:06.095Z,25.67
2022-10-03T17:28:15.351Z,24.00
2022-10-03T17:30:43.278Z,20.08
2022-10-03T17:32:53.438Z,21.58
2022-10-03T17:35:00.947Z,26.75
2022-10-03T17:37:12.355Z,38.05
2022-10-03T17:39:52.465Z,49.35
2022-10-03T17:42:03.670Z,50.70
2022-10-03T17:44:28.776Z,43.83
2022-10-03T17:47:04.697Z,41.33
2022-10-03T17:49:24.153Z,36.38
2022-10-03T17:51:36.914Z,27.67
2022-10-03T17:53:44.088Z,27.00
2022-10-03T17:55:57.310Z,29.45
2022-10-03T17:58:05.291Z,29.05
2022-10-03T18:00:18.317Z,27.80
2022-10-03T18:02:31.296Z,25.52
2022-10-03T18:04:40.140Z,20.75
2022-10-03T18:06:57.435Z,24.92
2022-10-03T18:09:07.475Z,25.92
2022-10-03T18:11:23.204Z,23.88
2022-10-03T18:13:35.161Z,25.25
2022-10-03T18:15:47.159Z,25.48
2022-10-03T18:17:59.868Z,29.88
2022-10-03T18:20:22.958Z,26.98
2022-10-03T18:22:38.528Z,31.10
2022-10-03T18:24:45.587Z,27.27
2022-10-03T18:27:32.378Z,26.50
2022-10-03T18:29:51.457Z,23.75
2022-10-03T18:31:58.992Z,21.00
2022-10-03T18:34:20.122Z,19.13
2022-10-03T18:36:58.986Z,18.40
2022-10-03T18:39:15.347Z,16.92
2022-10-03T18:41:19.175Z,13.95
2022-10-03T18:43:26.251Z,14.60
2022-10-03T18:45:41.940Z,12.63
2022-10-03T18:47:51.476Z,11.35
2022-10-03T18:49:59.328Z,11.20
2022-10-03T18:52:13.542Z,12.75
2022-10-03T18:54:27.571Z,7.95
2022-10-03T18:56:30.697Z,4.70
2022-10-03T18:58:45.067Z,6.85
2022-10-03T19:00:52.699Z,4.25
2022-10-03T19:03:03.935Z,7.35
2022-10-03T19:05:23.008Z,5.43
2022-10-03T19:07:28.217Z,5.57
2022-10-03T19:09:39.345Z,7.38
2022-10-03T19:12:01.637Z,5.03
2022-10-03T19:14:26.164Z,3.88
2022-10-03T19:17:05.842Z,6.75
2022-10-03T19:19:08.042Z,7.18
2022-10-03T19:21:21.219Z,3.15
2022-10-03T19:23:30.123Z,3.58
2022-10-03T19:25:39.327Z,4.97
2022-10-03T19:27:52.360Z,6.75
2022-10-03T19:29:59.427Z,7.35
2022-10-03T19:32:27.698Z,8.50
2022-10-03T19:34:35.444Z,10.25
2022-10-03T19:36:39.893Z,7.00
2022-10-03T19:38:46.335Z,5.85
2022-10-03T19:41:14.124Z,7.03
2022-10-03T19:43:16.406Z,6.07
2022-10-03T19:45:20.323Z,15.45
2022-10-03T19:47:34.023Z,20.27
2022-10-03T19:50:21.226Z,22.15
2022-10-03T19:52:32.400Z,17.98
2022-10-03T19:54:45.337Z,13.77
2022-10-03T19:56:48.017Z,12.23
2022-10-03T19:59:14.806Z,9.05
2022-10-03T20:01:17.175Z,9.75
2022-10-03T20:03:34.189Z,7.47
2022-10-03T20:05:51.100Z,11.07
2022-10-03T20:08:15.336Z,15.45
2022-10-03T20:10:39.707Z,70.57
2022-10-03T20:12:46.593Z,55.00
2022-10-03T20:14:56.325Z,28.73
2022-10-03T20:17:02.588Z,17.30
2022-10-03T20:19:15.075Z,70.55
2022-10-03T20:21:27.442Z,25.33
2022-10-03T20:23:33.075Z,21.38
2022-10-03T20:25:46.594Z,16.08
2022-10-03T20:27:57.730Z,17.15
2022-10-03T20:30:36.078Z,11.18
2022-10-03T20:32:43.755Z,11.38
2022-10-03T20:34:54.159Z,38.50
2022-10-03T20:37:16.998Z,45.78
2022-10-03T20:39:30.541Z,43.10
2022-10-03T20:41:42.491Z,33.20
2022-10-03T20:43:52.638Z,30.02
2022-10-03T20:46:06.560Z,26.15
2022-10-03T20:48:18.850Z,17.17
2022-10-03T20:50:20.998Z,10.63
2022-10-03T20:52:25.285Z,12.57
2022-10-03T20:54:35.668Z,6.55
2022-10-03T20:56:50.535Z,8.23
2022-10-03T20:58:58.519Z,6.25
2022-10-03T21:01:23.509Z,6.95
2022-10-03T21:04:07.340Z,4.18
2022-10-03T21:06:25.424Z,6.47
2022-10-03T21:08:38.099Z,5.95
2022-10-03T21:10:47.726Z,4.60
2022-10-03T21:13:02.961Z,4.57
2022-10-03T21:15:14.723Z,3.67
2022-10-03T21:17:20.365Z,4.18
2022-10-03T21:19:37.960Z,3.92
2022-10-03T21:21:47.631Z,4.53
2022-10-03T21:23:56.117Z,8.23
2022-10-03T21:26:01.455Z,2.97
2022-10-03T21:28:05.035Z,4.32
2022-10-03T21:30:23.355Z,4.63
2022-10-03T21:32:37.373Z,3.55
2022-10-03T21:34:58.510Z,3.55
2022-10-03T21:37:23.477Z,3.38
2022-10-03T21:39:36.583Z,5.13
2022-10-03T21:41:56.744Z,8.50
2022-10-03T21:44:02.514Z,9.18
2022-10-03T21:46:21.743Z,7.70
2022-10-03T21:56:27.998Z,16.17
2022-10-03T21:58:36.350Z,29.27
2022-10-03T22:01:13.375Z,30.30
2022-10-03T22:03:26.189Z,23.52
2022-10-03T22:05:50.628Z,56.05
2022-10-03T22:07:53.003Z,36.67
2022-10-03T22:09:59.434Z,25.27
2022-10-03T22:12:07.321Z,24.75
2022-10-03T22:14:41.627Z,26.98
2022-10-03T22:16:49.503Z,42.58
2022-10-03T22:19:07.101Z,72.72
2022-10-03T22:21:23.362Z,75.15
2022-10-03T22:23:50.733Z,94.75
2022-10-03T22:26:01.536Z,68.93
2022-10-03T22:28:48.712Z,56.00
2022-10-03T22:31:09.359Z,25.45
2022-10-03T22:33:34.454Z,15.60
2022-10-03T22:35:55.862Z,13.40
2022-10-03T22:37:58.128Z,21.90
2022-10-03T22:40:01.721Z,21.83
2022-10-03T22:42:06.890Z,26.00
2022-10-03T22:44:12.895Z,33.88
2022-10-03T22:46:26.265Z,55.60
2022-10-03T22:48:44.660Z,75.45
2022-10-03T22:50:47.642Z,58.10
2022-10-03T22:52:55.262Z,46.15
2022-10-03T22:54:58.312Z,40.60
2022-10-03T22:57:05.386Z,41.15
2022-10-03T22:59:33.853Z,35.78
2022-10-03T23:01:40.259Z,31.10
2022-10-03T23:03:43.101Z,22.73
2022-10-03T23:05:54.300Z,21.48
2022-10-03T23:08:10.552Z,17.08
2022-10-03T23:10:34.519Z,29.02
2022-10-03T23:12:48.161Z,36.03
2022-10-03T23:14:55.360Z,36.92
2022-10-03T23:17:34.080Z,32.55
2022-10-03T23:19:57.158Z,29.67
2022-10-03T23:22:03.401Z,31.70
2022-10-03T23:24:15.020Z,60.95
2022-10-03T23:26:56.607Z,77.25
2022-10-03T23:29:03.332Z,74.07
2022-10-03T23:31:05.808Z,48.05
2022-10-03T23:33:19.327Z,41.50
2022-10-03T23:35:41.817Z,32.80
2022-10-03T23:37:47.413Z,58.40
2022-10-03T23:39:58.428Z,54.05
2022-10-03T23:42:21.864Z,59.97
2022-10-03T23:45:10.632Z,58.72
2022-10-03T23:47:16.655Z,31.00
2022-10-03T23:49:20.820Z,16.02
2022-10-03T23:51:30.394Z,16.08
2022-10-03T23:53:47.159Z,17.67
2022-10-03T23:55:50.218Z,16.58
2022-10-03T23:57:52.434Z,14.02
2022-10-03T23:59:54.913Z,14.63
